CheckWX is a tool to help pilots better visualize weather data.  It is not intended as a substitute for an official pre-flight weather briefing.

11:58:00 UTC

LTBI TAF
Eskişehir Air Base Airport
Turkey
TAF LTBI 211040Z 2112/2121 34010KT CAVOK TEMPO 2112/2116 01015G25KT BECMG 2116/2118 26008KT

Mar-21@
12:00 UTC

Mar-21 @ 12:00 UTC

Mar-21@
16:00 UTC

Mar-21 @ 16:00 UTC

TAF LTBI 211040Z 2112/2121 34010KT CAVOK
Wind
  • 340° at 10 KTS
Conditions
No significant weather
Cloud Levels
  • No significant clouds

Mar-21@
12:00 UTC

Mar-21 @ 12:00 UTC

Mar-21@
16:00 UTC

Mar-21 @ 16:00 UTC

TEMPO 2112/2116 01015G25KT

Temporary

Temporary Changes expected for less than half the time period

Wind
  • 010° at 15 KTS
  • {Gusting to 25 KTS

Mar-21@
16:00 UTC

Mar-21 @ 16:00 UTC

Mar-21@
21:00 UTC

Mar-21 @ 21:00 UTC

BECMG 2116/2118 26008KT

Becoming

Becoming Conditions expected by Thu, Mar 21, 2019 @ 18:00 UTC

Wind
  • 260° at 8 KTS
Conditions
No significant weather
Cloud Levels
  • No significant clouds